Aérodrome :
LOGIN :

S'inscrire | Disclaimer

   EN    FR    IT 

 










Légende :    VFR   VFR Marginal   IFR   IFR Intensif   IFR Très Intensif
Visi : 
Plafond : 
>= 8 km
>= 3000ft
5 à 8 km
1000 à 3000 ft
1500m à 5 km
500 à 1000 ft
800 à 1500m
200 à 500 ft
< 800m
< 200 ft
Symboles :   Orages  Brouillard  Fortes neiges  Fortes précipitations  Vent > 20 kt
SIGMETs :   Divers  Orages  Givrage  Turbulence  Onde Orograph.  Cendres Volcan.







- Altitude de l'aérodrome : 325 ft
- Code IATA : BES
- Voir les cartes d'approche


LFRB - Brest

DERNIER METAR :
  • 230800Z AUTO 25006KT 9999 BKN030 OVC035 17/12 Q1022 BECMG 20015G25KT

METARs EXPIRÉS :
  • 230730Z AUTO 26004KT 9999 FEW026 OVC032 16/12 Q1022 BECMG 20015G25KT
  • 230700Z AUTO 26005KT 230V290 9999 OVC025 16/12 Q1021 NOSIG
  • 230630Z AUTO 26005KT 230V300 9999 OVC025 16/12 Q1021 NOSIG
  • 230600Z AUTO 28003KT 250V310 9999 OVC022 15/12 Q1021 NOSIG
  • 230530Z AUTO 28005KT 240V310 9999 OVC021 15/12 Q1021 NOSIG

TAF TAF LFRB
Valide du 23 à 06h jusqu'au 24 à 12h UTC


230500Z 2306/2412 28006KT 9999 BKN021
BECMG 2309/2312 20015G25KT SCT025
BECMG 2321/2324 BKN006
BECMG 2403/2406 3000 RADZ OVC003
ATIS : +33 2 98 32 02 71
Pas de NOTAMs connus pour ce terrain.



MET'MAP, la Météo Aéronautique d'un coup d'oeil ! - Copyright ORBIFLY Décembre 2007 - Disclaimer

ORBIFLY MET'MAP TEAM :

Programmation & Développement : Alexandra Zaïnal
Conception & Développement : Baudouin d'Aumeries
Co-Programmation & Développement : Marc-Olivier Méhu
Soutien technique & logistique : Manuel Goepfert

Contact : metmap@orbifly.com




SOURCES & CREDITS :

   NOAA